createdAt,value
2018-09-17T00:00:29.201Z,66.10
2018-09-17T00:05:32.465Z,64.50
2018-09-17T00:10:35.506Z,65.30
2018-09-17T00:15:39.078Z,66.00
2018-09-17T00:20:43.067Z,65.40
2018-09-17T00:25:46.124Z,65.30
2018-09-17T00:30:49.314Z,66.70
2018-09-17T00:35:52.395Z,68.30
2018-09-17T00:40:55.657Z,67.80
2018-09-17T00:45:58.721Z,68.00
2018-09-17T00:51:03.499Z,68.20
2018-09-17T00:56:06.808Z,68.40
2018-09-17T01:01:10.025Z,70.10
2018-09-17T01:06:13.132Z,69.70
2018-09-17T01:11:16.552Z,69.80
2018-09-17T01:16:19.796Z,69.80
2018-09-17T01:21:23.059Z,70.20
2018-09-17T01:26:26.165Z,70.60
2018-09-17T01:31:29.675Z,70.80
2018-09-17T01:36:32.837Z,70.80
2018-09-17T01:41:35.953Z,71.60
2018-09-17T01:46:39.431Z,70.70
2018-09-17T01:51:42.568Z,71.10
2018-09-17T01:56:45.675Z,70.70
2018-09-17T02:01:49.027Z,72.40
2018-09-17T02:06:52.163Z,73.30
2018-09-17T02:11:55.209Z,73.50
2018-09-17T02:16:58.371Z,73.90
2018-09-17T02:22:05.050Z,73.80
2018-09-17T02:27:08.309Z,73.90
2018-09-17T02:32:11.429Z,74.20
2018-09-17T02:37:14.493Z,73.20
2018-09-17T02:42:17.769Z,72.60
2018-09-17T02:47:21.005Z,73.00
2018-09-17T02:52:24.233Z,74.00
2018-09-17T02:57:27.320Z,74.40
2018-09-17T03:02:30.680Z,74.30
2018-09-17T03:07:33.860Z,73.60
2018-09-17T03:12:37.533Z,75.00
2018-09-17T03:17:40.964Z,75.40
2018-09-17T03:22:44.036Z,74.80
2018-09-17T03:27:47.145Z,74.40
2018-09-17T03:32:50.248Z,75.40
2018-09-17T03:37:53.519Z,74.60
2018-09-17T03:42:56.643Z,74.10
2018-09-17T03:47:59.811Z,73.80
2018-09-17T03:53:04.131Z,75.20
2018-09-17T03:58:07.218Z,75.30
2018-09-17T04:03:10.572Z,74.40
2018-09-17T04:08:13.968Z,74.10
2018-09-17T04:13:17.347Z,75.80
2018-09-17T04:18:20.431Z,74.80
2018-09-17T04:23:28.915Z,76.10
2018-09-17T04:28:32.945Z,75.40
2018-09-17T04:33:38.555Z,76.60
2018-09-17T04:38:42.172Z,77.90
2018-09-17T04:43:45.738Z,78.60
2018-09-17T04:48:48.891Z,78.40
2018-09-17T04:53:52.003Z,79.30
2018-09-17T04:58:55.267Z,80.10
2018-09-17T05:03:58.581Z,80.50
2018-09-17T05:09:04.547Z,80.40
2018-09-17T05:14:07.914Z,80.20
2018-09-17T05:19:11.122Z,80.20
2018-09-17T05:24:14.253Z,78.90
2018-09-17T05:29:17.358Z,76.50
2018-09-17T05:34:20.449Z,75.00
2018-09-17T05:39:23.554Z,71.30
2018-09-17T05:44:26.736Z,68.00
2018-09-17T05:49:29.812Z,65.10
2018-09-17T05:54:32.835Z,63.70
2018-09-17T05:59:36.398Z,61.50
2018-09-17T06:04:40.488Z,58.70
2018-09-17T06:09:43.676Z,55.90
2018-09-17T06:14:46.743Z,53.40
2018-09-17T06:19:49.720Z,54.50
2018-09-17T06:30:38.761Z,54.10
2018-09-17T06:35:41.949Z,52.60
2018-09-17T06:40:44.940Z,50.50
2018-09-17T06:45:48.117Z,49.20
2018-09-17T06:50:51.095Z,47.70
2018-09-17T06:55:54.260Z,46.60
2018-09-17T07:00:57.302Z,45.90
2018-09-17T07:06:00.276Z,44.70
2018-09-17T07:11:05.117Z,44.50
2018-09-17T07:16:08.417Z,42.80
2018-09-17T07:21:11.386Z,41.70
2018-09-17T07:26:14.841Z,41.30
2018-09-17T07:31:17.803Z,42.20
2018-09-17T07:36:20.831Z,44.10
2018-09-17T07:41:23.980Z,44.70
2018-09-17T07:46:27.755Z,43.80
2018-09-17T07:51:30.756Z,44.40
2018-09-17T07:56:33.977Z,43.40
2018-09-17T08:01:37.173Z,42.10
2018-09-17T08:06:40.181Z,41.60
2018-09-17T08:11:43.735Z,40.30
2018-09-17T08:16:46.735Z,41.90
2018-09-17T08:21:49.799Z,42.40
2018-09-17T08:26:52.744Z,42.40
2018-09-17T08:31:55.736Z,44.40
2018-09-17T08:36:58.980Z,43.10
2018-09-17T08:42:02.717Z,42.30
2018-09-17T08:47:05.781Z,42.20
2018-09-17T08:52:08.813Z,42.40
2018-09-17T08:57:17.599Z,42.80
2018-09-17T09:03:27.231Z,44.20
2018-09-17T09:08:30.204Z,43.40
2018-09-17T09:13:33.268Z,44.00
2018-09-17T09:18:36.272Z,44.30
2018-09-17T09:23:39.354Z,43.40
2018-09-17T09:28:42.347Z,42.30
2018-09-17T09:33:45.335Z,42.70
2018-09-17T09:38:48.337Z,43.20
2018-09-17T09:43:51.618Z,44.10
2018-09-17T09:48:54.583Z,44.70
2018-09-17T09:53:57.772Z,45.20
2018-09-17T09:59:02.689Z,45.00
2018-09-17T10:04:11.504Z,44.90
2018-09-17T10:09:20.208Z,45.00
2018-09-17T10:14:28.895Z,44.50
2018-09-17T10:19:32.112Z,44.10
2018-09-17T10:24:35.556Z,44.60
2018-09-17T10:29:38.627Z,43.10
2018-09-17T10:34:41.912Z,43.70
2018-09-17T10:39:44.867Z,44.00
2018-09-17T10:44:48.140Z,44.00
2018-09-17T10:49:51.142Z,43.40
2018-09-17T10:54:54.164Z,44.30
2018-09-17T10:59:57.194Z,43.20
2018-09-17T11:05:00.153Z,43.30
2018-09-17T11:10:05.615Z,43.70
2018-09-17T11:15:08.636Z,43.70
2018-09-17T11:20:11.613Z,43.30
2018-09-17T11:25:14.687Z,43.10
2018-09-17T11:30:17.754Z,43.60
2018-09-17T11:35:20.741Z,42.40
2018-09-17T11:40:23.932Z,41.90
2018-09-17T11:45:26.927Z,42.10
2018-09-17T11:50:30.233Z,41.20
2018-09-17T11:55:33.370Z,40.90
2018-09-17T12:00:42.059Z,40.00
2018-09-17T12:05:50.842Z,38.90
2018-09-17T12:10:53.844Z,38.10
2018-09-17T12:15:56.969Z,38.50
2018-09-17T12:21:00.313Z,37.70
2018-09-17T12:26:03.856Z,37.30
2018-09-17T12:31:07.122Z,36.20
2018-09-17T12:36:10.201Z,34.90
2018-09-17T12:41:13.227Z,34.00
2018-09-17T12:46:16.287Z,33.80
2018-09-17T12:51:19.435Z,33.80
2018-09-17T12:56:22.604Z,33.50
2018-09-17T13:01:25.605Z,33.10
2018-09-17T13:06:28.616Z,34.60
2018-09-17T13:11:31.692Z,33.60
2018-09-17T13:16:37.183Z,34.20
2018-09-17T13:21:40.180Z,34.10
2018-09-17T13:26:43.224Z,34.30
2018-09-17T13:31:46.237Z,34.00
2018-09-17T13:36:49.747Z,33.30
2018-09-17T13:41:52.871Z,33.90
2018-09-17T13:46:55.851Z,31.20
2018-09-17T13:51:58.944Z,32.20
2018-09-17T13:57:03.649Z,32.50
2018-09-17T14:02:06.867Z,31.10
2018-09-17T14:07:10.303Z,30.90
2018-09-17T14:12:13.572Z,32.30
2018-09-17T14:17:16.639Z,33.20
2018-09-17T14:22:19.830Z,34.40
2018-09-17T14:27:23.158Z,32.60
2018-09-17T14:32:31.891Z,31.90
2018-09-17T14:37:35.135Z,32.00
2018-09-17T14:42:38.537Z,31.30
2018-09-17T14:47:41.746Z,31.30
2018-09-17T14:52:44.969Z,31.60
2018-09-17T14:57:48.168Z,31.50
2018-09-17T15:02:51.503Z,30.80
2018-09-17T15:07:54.903Z,31.10
2018-09-17T15:12:58.255Z,30.90
2018-09-17T15:18:04.217Z,29.70
2018-09-17T15:23:07.469Z,28.90
2018-09-17T15:28:10.720Z,29.50
2018-09-17T15:33:14.122Z,29.70
2018-09-17T15:38:17.409Z,29.70
2018-09-17T15:43:20.541Z,29.20
2018-09-17T15:48:23.814Z,29.50
2018-09-17T15:53:27.082Z,30.00
2018-09-17T15:58:30.500Z,31.10
2018-09-17T16:03:33.666Z,31.40
2018-09-17T16:08:36.880Z,30.80
2018-09-17T16:13:40.044Z,30.40
2018-09-17T16:18:43.287Z,31.00
2018-09-17T16:23:46.426Z,31.40
2018-09-17T16:28:49.806Z,31.50
2018-09-17T16:33:53.021Z,32.00
2018-09-17T16:38:56.200Z,32.00
2018-09-17T16:43:59.476Z,32.30
2018-09-17T16:49:03.600Z,33.10
2018-09-17T16:54:06.792Z,34.00
2018-09-17T17:04:19.156Z,35.10
2018-09-17T17:09:22.191Z,35.80
2018-09-17T17:14:25.190Z,36.80
2018-09-17T17:19:28.294Z,37.60
2018-09-17T17:24:31.289Z,37.80
2018-09-17T17:29:34.363Z,38.30
2018-09-17T17:34:37.598Z,40.00
2018-09-17T17:39:40.690Z,40.00
2018-09-17T17:44:43.667Z,41.70
2018-09-17T17:49:46.738Z,43.70
2018-09-17T17:54:50.703Z,44.10
2018-09-17T17:59:53.768Z,42.20
2018-09-17T18:04:56.828Z,43.90
2018-09-17T18:09:59.955Z,45.40
2018-09-17T18:15:05.361Z,46.00
2018-09-17T18:20:08.589Z,46.80
2018-09-17T18:25:11.645Z,45.40
2018-09-17T18:30:14.680Z,45.60
2018-09-17T18:35:17.881Z,45.60
2018-09-17T18:40:20.959Z,45.50
2018-09-17T18:45:24.051Z,46.00
2018-09-17T18:50:27.047Z,46.70
2018-09-17T18:55:30.211Z,47.40
2018-09-17T19:00:33.243Z,48.50
2018-09-17T19:05:36.764Z,48.90
2018-09-17T19:10:39.812Z,50.70
2018-09-17T19:15:51.686Z,51.30
2018-09-17T19:20:55.140Z,52.10
2018-09-17T19:25:57.975Z,53.10
2018-09-17T19:31:01.124Z,53.70
2018-09-17T19:36:04.864Z,53.70
2018-09-17T19:41:08.181Z,54.90
2018-09-17T19:46:18.842Z,54.90
2018-09-17T19:51:27.417Z,55.20
2018-09-17T19:56:30.562Z,55.50
2018-09-17T20:01:33.827Z,55.90
2018-09-17T20:06:36.931Z,56.10
2018-09-17T20:11:40.188Z,56.20
2018-09-17T20:16:43.323Z,56.40
2018-09-17T20:21:46.493Z,56.80
2018-09-17T20:26:50.168Z,56.50
2018-09-17T20:31:53.436Z,56.70
2018-09-17T20:36:56.664Z,57.20
2018-09-17T20:41:59.923Z,57.70
2018-09-17T20:47:04.970Z,58.20
2018-09-17T20:52:08.066Z,58.30
2018-09-17T20:57:11.055Z,58.10
2018-09-17T21:02:14.067Z,58.90
2018-09-17T21:07:17.139Z,59.90
2018-09-17T21:12:20.168Z,59.10
2018-09-17T21:17:23.197Z,58.80
2018-09-17T21:22:26.264Z,58.30
2018-09-17T21:27:29.244Z,58.90
2018-09-17T21:32:32.771Z,59.40
2018-09-17T21:37:35.950Z,60.00
2018-09-17T21:42:38.923Z,60.70
2018-09-17T21:47:41.959Z,61.90
2018-09-17T21:52:44.971Z,63.10
2018-09-17T21:57:47.957Z,63.90
2018-09-17T22:02:51.050Z,63.10
2018-09-17T22:07:54.034Z,63.00
2018-09-17T22:12:57.082Z,62.60
2018-09-17T22:18:00.160Z,60.80
2018-09-17T22:23:04.804Z,59.70
2018-09-17T22:28:08.123Z,60.70
2018-09-17T22:33:11.078Z,60.90
2018-09-17T22:38:14.079Z,60.30
2018-09-17T22:43:17.054Z,59.80
2018-09-17T22:48:20.060Z,60.10
2018-09-17T22:53:23.220Z,60.80
2018-09-17T22:58:26.325Z,61.30
2018-09-17T23:03:29.330Z,62.10
2018-09-17T23:08:32.326Z,62.30
2018-09-17T23:13:35.510Z,60.50
2018-09-17T23:18:38.470Z,60.60
2018-09-17T23:23:41.431Z,61.70
2018-09-17T23:28:44.419Z,61.20
2018-09-17T23:33:47.422Z,61.20
2018-09-17T23:38:50.396Z,61.50
2018-09-17T23:43:53.364Z,62.50
2018-09-17T23:48:56.343Z,62.50
2018-09-17T23:53:59.472Z,62.10
2018-09-17T23:59:04.448Z,62.90
